createdAt,value
2022-10-10T00:02:18.469Z,4.50
2022-10-10T00:04:44.718Z,4.07
2022-10-10T00:07:10.967Z,4.55
2022-10-10T00:09:37.220Z,4.63
2022-10-10T00:12:03.553Z,4.78
2022-10-10T00:14:32.483Z,4.68
2022-10-10T00:16:58.919Z,4.30
2022-10-10T00:19:25.164Z,4.53
2022-10-10T00:21:51.412Z,4.13
2022-10-10T00:24:17.640Z,4.05
2022-10-10T00:26:43.890Z,4.05
2022-10-10T00:29:10.135Z,4.57
2022-10-10T00:31:36.440Z,4.05
2022-10-10T00:34:02.705Z,4.40
2022-10-10T00:36:29.027Z,4.00
2022-10-10T00:38:55.369Z,4.28
2022-10-10T00:41:22.285Z,4.55
2022-10-10T00:44:02.243Z,4.72
2022-10-10T00:46:28.543Z,4.18
2022-10-10T00:48:54.835Z,4.72
2022-10-10T00:51:21.302Z,4.13
2022-10-10T00:53:48.931Z,4.57
2022-10-10T00:56:17.260Z,4.35
2022-10-10T00:58:44.938Z,4.65
2022-10-10T01:01:11.424Z,4.70
2022-10-10T01:03:38.068Z,4.78
2022-10-10T01:06:05.154Z,4.75
2022-10-10T01:08:31.505Z,4.28
2022-10-10T01:11:16.428Z,4.60
2022-10-10T01:13:42.624Z,4.45
2022-10-10T01:16:27.324Z,3.83
2022-10-10T01:18:57.200Z,5.03
2022-10-10T01:21:37.757Z,4.63
2022-10-10T01:24:22.165Z,5.35
2022-10-10T01:27:00.902Z,4.95
2022-10-10T01:29:31.098Z,4.97
2022-10-10T01:32:03.728Z,5.05
2022-10-10T01:34:32.739Z,5.32
2022-10-10T01:37:01.512Z,5.05
2022-10-10T01:39:31.410Z,4.30
2022-10-10T01:42:07.991Z,4.50
2022-10-10T01:44:34.223Z,4.72
2022-10-10T01:47:00.551Z,4.78
2022-10-10T01:49:28.919Z,4.78
2022-10-10T01:51:55.265Z,4.70
2022-10-10T01:54:28.227Z,4.55
2022-10-10T01:57:12.712Z,4.53
2022-10-10T01:59:58.174Z,4.45
2022-10-10T02:02:32.516Z,4.95
2022-10-10T02:05:02.850Z,4.15
2022-10-10T02:07:32.211Z,4.90
2022-10-10T02:10:00.404Z,5.03
2022-10-10T02:12:28.152Z,4.60
2022-10-10T02:14:56.644Z,5.03
2022-10-10T02:17:24.738Z,4.47
2022-10-10T02:19:53.044Z,5.03
2022-10-10T02:22:21.093Z,4.68
2022-10-10T02:24:47.494Z,4.65
2022-10-10T02:27:21.402Z,4.75
2022-10-10T02:29:48.533Z,4.93
2022-10-10T02:32:19.389Z,5.00
2022-10-10T02:34:47.592Z,4.78
2022-10-10T02:37:15.454Z,4.55
2022-10-10T02:39:47.379Z,4.75
2022-10-10T02:42:16.050Z,5.03
2022-10-10T02:44:42.569Z,4.93
2022-10-10T02:47:08.862Z,5.53
2022-10-10T02:49:35.371Z,5.22
2022-10-10T02:52:02.116Z,4.40
2022-10-10T02:54:28.395Z,4.88
2022-10-10T02:56:54.806Z,4.43
2022-10-10T02:59:21.318Z,4.72
2022-10-10T03:01:47.596Z,4.30
2022-10-10T03:04:14.053Z,4.72
2022-10-10T03:06:40.316Z,4.60
2022-10-10T03:09:06.563Z,4.93
2022-10-10T03:11:32.895Z,4.80
2022-10-10T03:13:59.181Z,4.70
2022-10-10T03:16:25.436Z,5.18
2022-10-10T03:18:51.789Z,4.95
2022-10-10T03:21:18.403Z,4.95
2022-10-10T03:23:44.658Z,4.85
2022-10-10T03:26:10.999Z,5.72
2022-10-10T03:28:37.753Z,5.53
2022-10-10T03:31:04.644Z,4.78
2022-10-10T03:33:30.922Z,5.00
2022-10-10T03:35:57.333Z,5.07
2022-10-10T03:38:23.608Z,4.85
2022-10-10T03:40:50.113Z,4.85
2022-10-10T03:43:16.336Z,5.13
2022-10-10T03:45:43.774Z,5.25
2022-10-10T03:48:10.514Z,5.15
2022-10-10T03:50:37.099Z,4.70
2022-10-10T03:53:03.566Z,4.95
2022-10-10T03:55:29.808Z,5.28
2022-10-10T03:57:56.336Z,5.07
2022-10-10T04:00:22.688Z,5.43
2022-10-10T04:02:49.330Z,5.30
2022-10-10T04:05:15.858Z,4.60
2022-10-10T04:07:42.461Z,6.85
2022-10-10T04:10:09.531Z,5.22
2022-10-10T04:12:35.764Z,5.45
2022-10-10T04:15:02.128Z,5.15
2022-10-10T04:17:28.443Z,5.47
2022-10-10T04:19:54.698Z,5.70
2022-10-10T04:22:21.334Z,5.00
2022-10-10T04:24:47.646Z,5.25
2022-10-10T04:27:13.923Z,6.00
2022-10-10T04:29:40.199Z,5.60
2022-10-10T04:32:07.445Z,5.07
2022-10-10T04:34:33.686Z,5.07
2022-10-10T04:36:59.986Z,5.93
2022-10-10T04:39:26.353Z,5.70
2022-10-10T04:41:52.578Z,5.32
2022-10-10T04:44:18.935Z,5.90
2022-10-10T04:46:45.284Z,5.75
2022-10-10T04:49:11.782Z,5.60
2022-10-10T04:51:38.053Z,5.63
2022-10-10T04:54:04.418Z,5.82
2022-10-10T04:56:30.686Z,5.47
2022-10-10T04:58:57.504Z,5.55
2022-10-10T05:01:23.870Z,5.45
2022-10-10T05:03:50.320Z,6.18
2022-10-10T05:06:16.591Z,5.43
2022-10-10T05:08:42.875Z,5.95
2022-10-10T05:11:09.148Z,5.55
2022-10-10T05:13:35.408Z,5.78
2022-10-10T05:16:01.637Z,6.03
2022-10-10T05:18:28.367Z,6.20
2022-10-10T05:20:54.613Z,5.95
2022-10-10T05:23:21.258Z,5.65
2022-10-10T05:25:48.315Z,5.80
2022-10-10T05:28:14.617Z,5.85
2022-10-10T05:30:41.026Z,5.82
2022-10-10T05:33:07.709Z,5.82
2022-10-10T05:35:34.036Z,6.03
2022-10-10T05:38:00.400Z,5.93
2022-10-10T05:40:26.792Z,6.57
2022-10-10T05:42:53.400Z,6.15
2022-10-10T05:45:20.213Z,5.55
2022-10-10T05:47:46.583Z,5.88
2022-10-10T05:50:22.508Z,5.97
2022-10-10T05:52:49.106Z,5.70
2022-10-10T05:55:15.654Z,5.28
2022-10-10T05:57:41.935Z,6.13
2022-10-10T06:00:08.475Z,5.53
2022-10-10T06:02:35.574Z,6.30
2022-10-10T06:05:01.953Z,5.85
2022-10-10T06:07:40.596Z,5.55
2022-10-10T06:10:14.804Z,5.40
2022-10-10T06:12:41.120Z,7.72
2022-10-10T06:15:07.678Z,5.28
2022-10-10T06:17:34.013Z,5.32
2022-10-10T06:20:00.430Z,5.63
2022-10-10T06:22:27.463Z,6.55
2022-10-10T06:24:53.722Z,5.85
2022-10-10T06:27:20.273Z,5.85
2022-10-10T06:29:46.576Z,5.50
2022-10-10T06:32:12.909Z,6.55
2022-10-10T06:34:39.203Z,5.85
2022-10-10T06:37:05.472Z,6.70
2022-10-10T06:39:31.869Z,5.68
2022-10-10T06:41:58.561Z,5.50
2022-10-10T06:44:25.138Z,5.63
2022-10-10T06:46:51.495Z,6.13
2022-10-10T06:49:17.826Z,5.90
2022-10-10T06:51:44.162Z,5.80
2022-10-10T06:54:11.826Z,5.80
2022-10-10T06:56:38.173Z,5.63
2022-10-10T06:59:04.418Z,5.65
2022-10-10T07:01:30.739Z,5.40
2022-10-10T07:03:57.118Z,5.95
2022-10-10T07:06:23.554Z,6.15
2022-10-10T07:08:50.067Z,6.03
2022-10-10T07:11:16.586Z,6.20
2022-10-10T07:13:42.885Z,5.60
2022-10-10T07:16:10.071Z,5.45
2022-10-10T07:18:37.602Z,5.20
2022-10-10T07:21:04.340Z,5.43
2022-10-10T07:23:32.768Z,6.32
2022-10-10T07:26:05.149Z,6.32
2022-10-10T07:28:31.873Z,6.00
2022-10-10T07:30:59.544Z,5.38
2022-10-10T07:33:25.916Z,6.05
2022-10-10T07:35:52.687Z,5.38
2022-10-10T07:38:18.919Z,5.82
2022-10-10T07:40:45.227Z,5.65
2022-10-10T07:43:11.515Z,7.15
2022-10-10T07:45:37.974Z,5.40
2022-10-10T07:48:04.464Z,5.00
2022-10-10T07:50:30.878Z,5.65
2022-10-10T07:52:57.607Z,5.63
2022-10-10T07:55:23.953Z,5.57
2022-10-10T07:57:53.461Z,5.97
2022-10-10T08:00:20.407Z,5.40
2022-10-10T08:02:46.672Z,6.07
2022-10-10T08:05:12.944Z,5.25
2022-10-10T08:07:39.193Z,5.75
2022-10-10T08:10:06.561Z,5.70
2022-10-10T08:12:32.865Z,5.55
2022-10-10T08:14:59.465Z,6.15
2022-10-10T08:17:25.816Z,5.40
2022-10-10T08:19:52.107Z,5.53
2022-10-10T08:22:18.446Z,5.97
2022-10-10T08:24:44.725Z,6.07
2022-10-10T08:27:10.994Z,6.00
2022-10-10T08:29:37.276Z,5.65
2022-10-10T08:32:03.547Z,5.18
2022-10-10T08:34:29.856Z,5.03
2022-10-10T08:36:56.281Z,6.32
2022-10-10T08:39:22.593Z,4.95
2022-10-10T08:41:55.224Z,5.10
2022-10-10T08:44:25.088Z,5.03
2022-10-10T08:47:07.390Z,5.70
2022-10-10T08:49:37.207Z,5.10
2022-10-10T08:52:07.574Z,5.45
2022-10-10T08:54:34.653Z,5.15
2022-10-10T08:57:03.442Z,5.13
2022-10-10T08:59:33.410Z,5.03
2022-10-10T09:02:23.674Z,4.97
2022-10-10T09:04:52.605Z,4.78
2022-10-10T09:07:18.938Z,5.20
2022-10-10T09:09:48.295Z,4.97
2022-10-10T09:12:26.645Z,5.35
2022-10-10T09:14:52.871Z,5.13
2022-10-10T09:17:36.416Z,4.93
2022-10-10T09:20:09.520Z,6.25
2022-10-10T09:22:41.566Z,5.78
2022-10-10T09:25:16.846Z,4.90
2022-10-10T09:27:47.585Z,4.65
2022-10-10T09:30:20.729Z,6.18
2022-10-10T09:33:03.731Z,5.75
2022-10-10T09:35:34.590Z,4.90
2022-10-10T09:38:20.461Z,5.72
2022-10-10T09:41:07.045Z,5.38
2022-10-10T09:43:34.157Z,5.90
2022-10-10T09:46:00.626Z,6.25
2022-10-10T09:48:32.847Z,5.38
2022-10-10T09:51:00.116Z,5.70
2022-10-10T09:53:26.735Z,5.15
2022-10-10T09:55:54.068Z,5.60
2022-10-10T09:58:38.447Z,5.43
2022-10-10T10:01:18.703Z,5.07
2022-10-10T10:04:11.577Z,5.13
2022-10-10T10:06:44.750Z,5.63
2022-10-10T10:09:15.400Z,5.63
2022-10-10T10:11:42.002Z,5.28
2022-10-10T10:14:19.451Z,5.40
2022-10-10T10:16:45.770Z,5.63
2022-10-10T10:19:30.961Z,5.60
2022-10-10T10:21:57.480Z,5.80
2022-10-10T10:24:28.816Z,5.10
2022-10-10T10:26:55.251Z,5.35
2022-10-10T10:29:27.722Z,5.32
2022-10-10T10:32:12.596Z,5.43
2022-10-10T10:34:38.917Z,5.20
2022-10-10T10:37:17.458Z,5.07
2022-10-10T10:39:46.733Z,6.00
2022-10-10T10:42:16.113Z,5.70
2022-10-10T10:44:47.365Z,5.28
2022-10-10T10:47:16.736Z,5.22
2022-10-10T10:50:01.014Z,5.53
2022-10-10T10:52:33.114Z,5.65
2022-10-10T10:55:02.412Z,5.50
2022-10-10T10:58:00.066Z,5.50
2022-10-10T11:05:16.346Z,5.82
2022-10-10T11:06:11.909Z,7.43
2022-10-10T11:08:38.284Z,5.10
2022-10-10T11:11:10.647Z,5.38
2022-10-10T11:13:36.846Z,4.95
2022-10-10T11:16:24.331Z,5.55
2022-10-10T11:19:03.930Z,5.00
2022-10-10T11:21:32.536Z,5.13
2022-10-10T11:24:02.657Z,5.25
2022-10-10T11:26:36.487Z,4.60
2022-10-10T11:29:05.570Z,5.97
2022-10-10T11:31:36.871Z,4.35
2022-10-10T11:34:06.523Z,4.80
2022-10-10T11:36:35.024Z,5.50
2022-10-10T11:39:14.544Z,5.15
2022-10-10T11:41:49.406Z,5.35
2022-10-10T11:44:21.651Z,6.05
2022-10-10T11:47:06.751Z,5.15
2022-10-10T11:49:38.117Z,5.90
2022-10-10T11:52:33.056Z,6.22
2022-10-10T11:55:06.323Z,6.50
2022-10-10T11:57:36.543Z,6.07
2022-10-10T12:00:05.229Z,5.95
2022-10-10T12:02:36.284Z,5.80
2022-10-10T12:05:05.945Z,7.40
2022-10-10T12:07:40.735Z,6.35
2022-10-10T12:10:15.514Z,6.80
2022-10-10T12:12:44.503Z,6.00
2022-10-10T12:15:17.636Z,6.45
2022-10-10T12:17:45.027Z,6.38
2022-10-10T12:20:14.092Z,6.93
2022-10-10T12:22:40.594Z,6.43
2022-10-10T12:25:24.537Z,8.40
2022-10-10T12:28:05.499Z,6.57
2022-10-10T12:30:31.873Z,7.07
2022-10-10T12:32:58.643Z,7.68
2022-10-10T12:35:27.990Z,7.18
2022-10-10T12:38:08.661Z,7.10
2022-10-10T12:40:55.150Z,7.03
2022-10-10T12:43:25.748Z,6.75
2022-10-10T12:45:55.578Z,8.30
2022-10-10T12:48:22.216Z,7.80
2022-10-10T12:50:57.783Z,7.45
2022-10-10T12:53:24.983Z,8.00
2022-10-10T12:55:55.996Z,7.35
2022-10-10T12:58:27.030Z,7.72
2022-10-10T13:00:55.653Z,7.45
2022-10-10T13:03:30.463Z,6.28
2022-10-10T13:05:58.772Z,6.93
2022-10-10T13:08:26.879Z,6.28
2022-10-10T13:11:07.161Z,6.63
2022-10-10T13:13:33.456Z,6.22
2022-10-10T13:16:04.915Z,5.53
2022-10-10T13:18:41.806Z,5.32
2022-10-10T13:21:09.179Z,4.85
2022-10-10T13:23:36.625Z,4.65
2022-10-10T13:26:03.664Z,5.38
2022-10-10T13:28:30.023Z,5.43
2022-10-10T13:30:56.376Z,4.13
2022-10-10T13:33:25.397Z,4.28
2022-10-10T13:35:51.752Z,4.32
2022-10-10T13:38:19.692Z,3.50
2022-10-10T13:40:46.308Z,3.33
2022-10-10T13:43:16.785Z,2.75
2022-10-10T13:46:03.590Z,1.63
2022-10-10T13:48:32.771Z,1.13
2022-10-10T13:51:05.539Z,1.10
2022-10-10T13:53:42.451Z,0.50
2022-10-10T13:56:08.717Z,0.60
2022-10-10T13:58:46.553Z,0.60
2022-10-10T14:01:18.664Z,0.82
2022-10-10T14:03:48.963Z,0.63
2022-10-10T14:06:23.685Z,1.00
2022-10-10T14:08:50.818Z,0.60
2022-10-10T14:11:18.535Z,0.85
2022-10-10T14:13:48.219Z,0.75
2022-10-10T14:16:17.663Z,1.02
2022-10-10T14:18:44.478Z,1.17
2022-10-10T14:21:10.777Z,1.10
2022-10-10T14:23:37.312Z,1.17
2022-10-10T14:26:04.241Z,1.50
2022-10-10T14:28:31.853Z,1.17
2022-10-10T14:30:58.574Z,1.77
2022-10-10T14:33:25.587Z,1.05
2022-10-10T14:35:52.534Z,1.15
2022-10-10T14:38:18.824Z,1.60
2022-10-10T14:40:46.016Z,2.13
2022-10-10T14:43:13.186Z,1.60
2022-10-10T14:45:39.518Z,1.58
2022-10-10T14:48:05.949Z,1.38
2022-10-10T14:50:33.633Z,1.65
2022-10-10T14:53:00.285Z,1.83
2022-10-10T14:55:26.777Z,1.95
2022-10-10T14:57:53.030Z,2.17
2022-10-10T15:00:20.739Z,3.08
2022-10-10T15:02:47.216Z,2.28
2022-10-10T15:05:13.851Z,2.00
2022-10-10T15:07:40.321Z,2.13
2022-10-10T15:12:53.499Z,2.15
2022-10-10T15:15:19.888Z,1.92
2022-10-10T15:17:46.201Z,2.15
2022-10-10T15:20:13.348Z,2.22
2022-10-10T15:22:39.884Z,1.88
2022-10-10T15:25:06.712Z,2.03
2022-10-10T15:27:33.369Z,1.98
2022-10-10T15:30:00.231Z,1.90
2022-10-10T15:32:26.758Z,2.63
2022-10-10T15:34:53.045Z,2.20
2022-10-10T15:37:19.704Z,2.25
2022-10-10T15:39:47.785Z,1.90
2022-10-10T15:42:21.319Z,2.10
2022-10-10T15:44:48.965Z,2.00
2022-10-10T15:47:16.018Z,1.58
2022-10-10T15:49:42.624Z,2.35
2022-10-10T15:52:09.223Z,3.03
2022-10-10T15:54:35.745Z,2.60
2022-10-10T15:57:02.163Z,2.00
2022-10-10T15:59:28.467Z,1.88
2022-10-10T16:01:55.422Z,2.47
2022-10-10T16:04:22.611Z,1.85
2022-10-10T16:06:59.588Z,2.10
2022-10-10T16:09:36.040Z,2.70
2022-10-10T16:12:02.415Z,2.78
2022-10-10T16:14:29.013Z,2.08
2022-10-10T16:17:03.787Z,2.53
2022-10-10T16:19:30.148Z,2.05
2022-10-10T16:21:56.787Z,2.33
2022-10-10T16:24:23.121Z,3.05
2022-10-10T16:26:49.832Z,1.50
2022-10-10T16:29:18.460Z,2.10
2022-10-10T16:31:44.888Z,1.55
2022-10-10T16:34:12.810Z,2.20
2022-10-10T16:36:39.074Z,2.13
2022-10-10T16:39:05.355Z,2.20
2022-10-10T16:41:49.009Z,2.20
2022-10-10T16:44:16.474Z,1.42
2022-10-10T16:46:43.070Z,2.67
2022-10-10T16:49:09.804Z,2.80
2022-10-10T16:51:36.915Z,2.15
2022-10-10T16:54:05.064Z,2.63
2022-10-10T16:56:31.340Z,2.30
2022-10-10T16:58:58.346Z,2.30
2022-10-10T17:01:24.947Z,2.15
2022-10-10T17:03:51.813Z,2.75
2022-10-10T17:06:19.881Z,2.20
2022-10-10T17:08:46.823Z,1.95
2022-10-10T17:11:14.625Z,1.77
2022-10-10T17:13:41.664Z,2.53
2022-10-10T17:16:47.904Z,1.80
2022-10-10T17:18:55.584Z,2.17
2022-10-10T17:21:23.162Z,2.35
2022-10-10T17:23:49.799Z,2.00
2022-10-10T17:26:17.389Z,2.38
2022-10-10T17:28:44.333Z,2.13
2022-10-10T17:31:14.972Z,1.55
2022-10-10T17:33:42.336Z,1.52
2022-10-10T17:36:09.495Z,2.22
2022-10-10T17:38:39.897Z,1.67
2022-10-10T17:41:07.389Z,2.28
2022-10-10T17:43:33.831Z,1.88
2022-10-10T17:46:29.028Z,2.35
2022-10-10T17:48:50.755Z,2.58
2022-10-10T17:51:22.326Z,2.53
2022-10-10T17:53:52.129Z,2.00
2022-10-10T17:56:20.163Z,2.30
2022-10-10T17:58:46.936Z,2.80
2022-10-10T18:01:13.925Z,2.95
2022-10-10T18:03:40.263Z,2.65
2022-10-10T18:06:08.448Z,2.38
2022-10-10T18:08:35.518Z,2.63
2022-10-10T18:11:02.691Z,3.13
2022-10-10T18:13:30.564Z,2.55
2022-10-10T18:16:17.285Z,2.30
2022-10-10T18:18:50.459Z,3.30
2022-10-10T18:21:17.729Z,2.83
2022-10-10T18:23:44.045Z,2.45
2022-10-10T18:26:15.091Z,3.42
2022-10-10T18:28:45.039Z,4.22
2022-10-10T18:31:16.002Z,3.75
2022-10-10T18:33:44.202Z,4.15
2022-10-10T18:36:11.151Z,4.30
2022-10-10T18:38:37.815Z,3.88
2022-10-10T18:41:08.474Z,3.63
2022-10-10T18:43:38.434Z,3.88
2022-10-10T18:46:06.296Z,3.65
2022-10-10T18:48:32.736Z,3.53
2022-10-10T18:51:04.362Z,3.20
2022-10-10T18:53:31.418Z,3.58
2022-10-10T18:55:58.180Z,2.80
2022-10-10T18:58:25.449Z,3.05
2022-10-10T19:00:54.720Z,3.20
2022-10-10T19:03:21.036Z,3.35
2022-10-10T19:05:47.546Z,3.15
2022-10-10T19:08:13.965Z,3.95
2022-10-10T19:10:47.021Z,3.00
2022-10-10T19:13:13.416Z,2.30
2022-10-10T19:15:39.818Z,2.67
2022-10-10T19:18:06.202Z,3.80
2022-10-10T19:20:32.723Z,2.83
2022-10-10T19:22:59.244Z,2.85
2022-10-10T19:25:28.078Z,2.72
2022-10-10T19:27:54.437Z,3.13
2022-10-10T19:30:20.908Z,2.65
2022-10-10T19:35:18.292Z,3.20
2022-10-10T19:37:44.557Z,3.55
2022-10-10T19:40:10.925Z,3.30
2022-10-10T19:42:37.251Z,2.92
2022-10-10T19:45:03.680Z,4.15
2022-10-10T19:47:29.940Z,3.03
2022-10-10T19:49:56.289Z,2.95
2022-10-10T19:52:22.924Z,3.28
2022-10-10T19:54:49.190Z,3.17
2022-10-10T19:57:15.455Z,2.65
2022-10-10T19:59:41.729Z,3.28
2022-10-10T20:02:10.093Z,3.15
2022-10-10T20:04:36.416Z,3.60
2022-10-10T20:07:02.877Z,3.22
2022-10-10T20:09:29.651Z,4.05
2022-10-10T20:11:56.169Z,3.38
2022-10-10T20:14:22.445Z,3.50
2022-10-10T20:16:48.727Z,3.63
2022-10-10T20:19:15.042Z,3.22
2022-10-10T20:21:41.717Z,3.53
2022-10-10T20:24:09.080Z,4.10
2022-10-10T20:26:35.781Z,2.85
2022-10-10T20:29:02.084Z,3.45
2022-10-10T20:31:30.206Z,3.92
2022-10-10T20:33:58.335Z,3.00
2022-10-10T20:36:25.121Z,3.55
2022-10-10T20:38:55.193Z,2.58
2022-10-10T20:41:22.177Z,3.05
2022-10-10T20:43:48.459Z,3.00
2022-10-10T20:46:14.968Z,2.78
2022-10-10T20:48:41.407Z,3.90
2022-10-10T20:51:09.314Z,2.60
2022-10-10T20:53:36.383Z,3.38
2022-10-10T20:56:04.298Z,3.70
2022-10-10T20:58:30.788Z,3.60
2022-10-10T21:01:07.402Z,3.30
2022-10-10T21:03:33.780Z,3.50
2022-10-10T21:06:04.435Z,3.20
2022-10-10T21:08:30.947Z,2.58
2022-10-10T21:10:58.798Z,2.72
2022-10-10T21:13:25.078Z,4.15
2022-10-10T21:15:51.328Z,3.00
2022-10-10T21:18:17.634Z,2.90
2022-10-10T21:20:43.851Z,2.95
2022-10-10T21:23:10.189Z,2.78
2022-10-10T21:25:39.581Z,3.50
2022-10-10T21:28:06.005Z,3.40
2022-10-10T21:30:32.382Z,2.58
2022-10-10T21:32:58.626Z,3.17
2022-10-10T21:35:24.872Z,3.05
2022-10-10T21:37:51.106Z,2.72
2022-10-10T21:40:17.575Z,3.92
2022-10-10T21:42:43.856Z,3.17
2022-10-10T21:45:10.255Z,2.78
2022-10-10T21:47:36.510Z,2.40
2022-10-10T21:50:02.869Z,2.70
2022-10-10T21:52:29.177Z,2.95
2022-10-10T21:54:55.472Z,2.90
2022-10-10T21:57:21.839Z,3.50
2022-10-10T21:59:48.114Z,3.83
2022-10-10T22:02:14.398Z,3.38
2022-10-10T22:04:40.691Z,3.65
2022-10-10T22:07:06.947Z,3.95
2022-10-10T22:09:33.203Z,3.58
2022-10-10T22:11:59.463Z,3.10
2022-10-10T22:14:25.776Z,3.38
2022-10-10T22:16:52.003Z,3.30
2022-10-10T22:19:18.329Z,3.22
2022-10-10T22:21:44.733Z,3.67
2022-10-10T22:24:11.174Z,2.72
2022-10-10T22:26:37.479Z,2.80
2022-10-10T22:29:04.105Z,3.45
2022-10-10T22:31:30.479Z,3.88
2022-10-10T22:33:57.299Z,3.30
2022-10-10T22:36:23.554Z,2.40
2022-10-10T22:38:49.983Z,3.38
2022-10-10T22:41:16.289Z,2.90
2022-10-10T22:43:42.567Z,2.97
2022-10-10T22:46:09.579Z,2.92
2022-10-10T22:48:36.091Z,2.92
2022-10-10T22:51:03.864Z,2.47
2022-10-10T22:53:30.511Z,3.50
2022-10-10T22:55:57.231Z,3.03
2022-10-10T22:58:23.865Z,3.67
2022-10-10T23:00:50.222Z,4.25
2022-10-10T23:03:16.617Z,2.70
2022-10-10T23:05:43.885Z,2.65
2022-10-10T23:08:10.138Z,3.25
2022-10-10T23:10:36.383Z,3.15
2022-10-10T23:13:02.740Z,2.65
2022-10-10T23:15:28.998Z,3.00
2022-10-10T23:17:55.311Z,2.80
2022-10-10T23:20:21.570Z,2.70
2022-10-10T23:22:47.837Z,2.55
2022-10-10T23:25:14.205Z,3.33
2022-10-10T23:27:40.576Z,2.10
2022-10-10T23:30:07.080Z,2.45
2022-10-10T23:32:33.363Z,2.63
2022-10-10T23:34:59.620Z,2.95
2022-10-10T23:37:28.042Z,2.13
2022-10-10T23:39:54.439Z,2.85
2022-10-10T23:42:21.075Z,2.88
2022-10-10T23:44:47.315Z,2.40
2022-10-10T23:47:13.628Z,2.45
2022-10-10T23:49:39.859Z,2.10
2022-10-10T23:52:06.099Z,2.65
2022-10-10T23:54:32.834Z,2.95
2022-10-10T23:56:59.137Z,2.17
2022-10-10T23:59:25.396Z,2.63
